Time;durP1;ratioP1;P1;durP2;ratioP2;P2;SDS_P1;SDS_P2;PMS_P1;PMS_P2;Temp;Humidity;BMP_temperature;BMP_pressure;BME280_temperature;BME280_humidity;BME280_pressure;Samples;Min_cycle;Max_cycle;Signal;HPM_P1;HPM_P2
2023/06/12 00:00:47;;;;;;;0.98;0.70;;;20.50;92.20;;;;;;5070511;28;20257;-71
2023/06/12 00:03:16;;;;;;;1.10;1.00;;;20.50;92.30;;;;;;5071959;28;20681;-73
2023/06/12 00:05:44;;;;;;;1.23;1.10;;;20.50;92.50;;;;;;5073105;28;20204;-74
2023/06/12 00:08:13;;;;;;;0.90;0.60;;;20.50;92.70;;;;;;5066515;28;20238;-74
2023/06/12 00:10:43;;;;;;;0.90;0.90;;;20.40;92.90;;;;;;5071088;28;20246;-73
2023/06/12 00:13:12;;;;;;;0.70;0.60;;;20.30;93.40;;;;;;5068331;28;20566;-72
2023/06/12 00:15:41;;;;;;;0.82;0.70;;;20.30;93.90;;;;;;5069313;28;20208;-72
2023/06/12 00:18:10;;;;;;;1.13;0.85;;;20.30;94.20;;;;;;5072688;28;20231;-73
2023/06/12 00:20:38;;;;;;;1.20;1.00;;;20.20;94.40;;;;;;5072031;28;20211;-71
2023/06/12 00:23:07;;;;;;;0.70;0.60;;;20.20;94.60;;;;;;5075651;28;20890;-72
2023/06/12 00:25:34;;;;;;;1.02;0.93;;;20.10;94.90;;;;;;5069233;28;20250;-72
2023/06/12 00:28:03;;;;;;;0.93;0.75;;;20.20;95.00;;;;;;5068746;28;20224;-72
2023/06/12 00:30:30;;;;;;;0.98;0.88;;;20.20;95.20;;;;;;5071057;28;20246;-72
2023/06/12 00:33:00;;;;;;;1.40;1.30;;;20.10;95.30;;;;;;5072221;28;20207;-72
2023/06/12 00:35:28;;;;;;;1.50;0.98;;;20.10;95.80;;;;;;5077384;28;20205;-72
2023/06/12 00:37:56;;;;;;;1.10;0.82;;;20.10;96.20;;;;;;5074440;28;20224;-72
2023/06/12 00:40:23;;;;;;;2.03;0.73;;;20.10;96.50;;;;;;5068452;28;20201;-71
2023/06/12 00:42:52;;;;;;;1.50;1.40;;;20.00;96.70;;;;;;5072707;28;20216;-72
2023/06/12 00:45:22;;;;;;;2.00;0.95;;;20.00;96.80;;;;;;5076248;28;20200;-72
2023/06/12 00:47:52;;;;;;;1.05;0.93;;;20.00;97.10;;;;;;5069636;28;20234;-72
2023/06/12 00:50:26;;;;;;;1.15;1.05;;;19.90;97.60;;;;;;5071063;28;20735;-73
2023/06/12 00:52:55;;;;;;;0.90;0.75;;;19.90;97.70;;;;;;5078050;28;20227;-72
2023/06/12 00:55:24;;;;;;;1.00;0.70;;;19.80;98.40;;;;;;5067922;28;20233;-72
2023/06/12 00:57:52;;;;;;;1.27;1.20;;;19.80;98.10;;;;;;5072826;28;20226;-72
2023/06/12 01:00:20;;;;;;;1.00;0.93;;;19.80;98.60;;;;;;5069856;28;20212;-72
2023/06/12 01:02:53;;;;;;;1.45;0.80;;;19.80;98.60;;;;;;5070318;28;20196;-72
2023/06/12 01:05:32;;;;;;;0.70;0.70;;;19.80;98.80;;;;;;5068762;28;20204;-72
2023/06/12 01:08:17;;;;;;;0.80;0.70;;;19.80;99.10;;;;;;5069155;28;20948;-71
2023/06/12 01:10:49;;;;;;;1.10;1.00;;;19.80;99.00;;;;;;5081628;28;20765;-72
2023/06/12 01:13:19;;;;;;;1.25;0.70;;;19.80;98.90;;;;;;5073252;28;20772;-72
2023/06/12 01:15:46;;;;;;;1.25;1.15;;;19.80;99.10;;;;;;5081891;28;20207;-74
2023/06/12 01:18:16;;;;;;;1.63;1.52;;;19.70;99.00;;;;;;5090326;28;20281;-74
2023/06/12 01:20:46;;;;;;;1.33;1.00;;;19.70;99.60;;;;;;5080660;28;20187;-74
2023/06/12 01:23:31;;;;;;;1.08;0.80;;;19.70;99.40;;;;;;5079374;28;20656;-72
2023/06/12 01:26:18;;;;;;;1.33;1.02;;;19.70;99.20;;;;;;5071191;28;20200;-72
2023/06/12 01:29:38;;;;;;;1.08;0.90;;;19.70;98.80;;;;;;5074317;28;20292;-73
2023/06/12 01:32:09;;;;;;;1.02;0.85;;;19.70;99.10;;;;;;5074581;28;20299;-74
2023/06/12 01:34:41;;;;;;;1.00;0.80;;;19.60;98.90;;;;;;5071692;28;20211;-74
2023/06/12 01:37:16;;;;;;;1.00;0.90;;;19.60;99.00;;;;;;5076631;28;20239;-73
2023/06/12 01:39:52;;;;;;;2.25;1.20;;;19.60;98.80;;;;;;5072972;28;20195;-73
2023/06/12 01:42:20;;;;;;;1.33;1.00;;;19.60;98.20;;;;;;5069826;28;20214;-73
2023/06/12 01:44:50;;;;;;;0.82;0.75;;;19.60;98.50;;;;;;5070131;28;20216;-73
2023/06/12 01:47:20;;;;;;;1.83;1.73;;;19.60;98.40;;;;;;5070889;28;20229;-73
2023/06/12 01:49:48;;;;;;;1.02;0.88;;;19.60;98.60;;;;;;5073154;28;20235;-73
2023/06/12 01:52:16;;;;;;;1.35;1.05;;;19.60;98.70;;;;;;5077766;28;20211;-71
2023/06/12 01:54:47;;;;;;;0.70;0.70;;;19.60;98.20;;;;;;5076858;28;20558;-73
2023/06/12 01:57:19;;;;;;;0.80;0.70;;;19.60;98.10;;;;;;5075982;28;20696;-73
2023/06/12 01:59:48;;;;;;;1.23;1.13;;;19.50;98.10;;;;;;5078737;28;20200;-73
2023/06/12 02:02:16;;;;;;;1.02;0.93;;;19.50;98.00;;;;;;5075005;28;20243;-73
2023/06/12 02:04:46;;;;;;;1.65;0.95;;;19.50;96.70;;;;;;5071228;28;20209;-73
2023/06/12 02:07:14;;;;;;;1.38;0.80;;;19.60;97.20;;;;;;5074609;28;20252;-74
2023/06/12 02:09:42;;;;;;;0.70;0.60;;;19.60;97.20;;;;;;5075064;28;20205;-73
2023/06/12 02:12:11;;;;;;;1.35;1.02;;;19.60;97.50;;;;;;5071731;28;20224;-73
2023/06/12 02:14:41;;;;;;;1.98;1.70;;;19.70;97.10;;;;;;5075589;28;20229;-73
2023/06/12 02:17:09;;;;;;;0.77;0.77;;;19.60;97.30;;;;;;5076664;28;20231;-73
2023/06/12 02:19:37;;;;;;;1.10;1.00;;;19.60;97.50;;;;;;5068825;28;20556;-72
2023/06/12 02:22:06;;;;;;;1.00;0.90;;;19.60;97.50;;;;;;5079614;28;20269;-72
2023/06/12 02:24:37;;;;;;;0.80;0.68;;;19.60;97.60;;;;;;5077263;28;20573;-73
2023/06/12 02:27:05;;;;;;;0.70;0.63;;;19.50;97.70;;;;;;5074387;28;20230;-73
2023/06/12 02:29:33;;;;;;;1.27;0.93;;;19.50;97.70;;;;;;5070605;28;20208;-73
2023/06/12 02:32:01;;;;;;;1.08;0.90;;;19.40;97.70;;;;;;5072159;28;20639;-72
2023/06/12 02:34:29;;;;;;;1.02;0.95;;;19.40;98.10;;;;;;5073659;28;20199;-70
2023/06/12 02:36:58;;;;;;;1.08;0.80;;;19.40;98.50;;;;;;5071398;28;20204;-73
2023/06/12 02:39:27;;;;;;;0.90;0.80;;;19.30;98.20;;;;;;5081136;28;20199;-72
2023/06/12 02:41:55;;;;;;;1.17;0.77;;;19.30;98.20;;;;;;5085586;28;20215;-73
2023/06/12 02:44:23;;;;;;;1.00;0.90;;;19.40;98.20;;;;;;5070618;28;20759;-73
2023/06/12 02:46:52;;;;;;;0.90;0.65;;;19.40;97.80;;;;;;5072214;28;20191;-73
2023/06/12 02:49:21;;;;;;;1.08;1.05;;;19.40;98.00;;;;;;5078764;28;20204;-73
2023/06/12 02:51:49;;;;;;;0.80;0.70;;;19.40;98.20;;;;;;5079821;28;20577;-73
2023/06/12 02:54:21;;;;;;;1.10;1.00;;;19.30;98.00;;;;;;5071458;28;20656;-73
2023/06/12 02:56:50;;;;;;;0.80;0.80;;;19.30;98.60;;;;;;5072356;28;20203;-72
2023/06/12 02:59:20;;;;;;;0.70;0.60;;;19.30;98.70;;;;;;5073115;28;20206;-73
2023/06/12 03:01:48;;;;;;;0.80;0.80;;;19.30;98.90;;;;;;5073828;28;20201;-73
2023/06/12 03:04:19;;;;;;;1.00;0.90;;;19.30;98.80;;;;;;5071544;28;20617;-73
2023/06/12 03:06:48;;;;;;;2.42;0.90;;;19.20;99.00;;;;;;5073758;28;20195;-72
2023/06/12 03:09:16;;;;;;;1.30;0.65;;;19.10;98.80;;;;;;5074422;28;20639;-73
2023/06/12 03:11:45;;;;;;;1.23;1.13;;;19.10;99.00;;;;;;5077739;28;20622;-73
2023/06/12 03:14:14;;;;;;;1.10;0.93;;;19.10;98.70;;;;;;5071878;28;20204;-72
2023/06/12 03:16:43;;;;;;;1.50;1.40;;;19.10;99.70;;;;;;5071321;28;20670;-71
2023/06/12 03:19:11;;;;;;;0.73;0.70;;;19.10;99.40;;;;;;5074936;28;20565;-72
2023/06/12 03:21:39;;;;;;;0.73;0.73;;;19.10;99.30;;;;;;5070178;28;20211;-71
2023/06/12 03:24:07;;;;;;;1.10;1.00;;;19.10;99.50;;;;;;5075789;28;20735;-70
2023/06/12 03:26:35;;;;;;;1.10;1.00;;;19.10;99.20;;;;;;5070970;28;20576;-72
2023/06/12 03:29:03;;;;;;;0.80;0.60;;;19.10;99.50;;;;;;5077337;28;20227;-72
2023/06/12 03:31:33;;;;;;;0.90;0.77;;;19.10;99.30;;;;;;5069873;28;20218;-72
2023/06/12 03:34:01;;;;;;;0.70;0.70;;;19.10;99.30;;;;;;5070636;28;20211;-72
2023/06/12 03:36:29;;;;;;;2.25;0.80;;;19.20;99.70;;;;;;5078348;28;20207;-72
2023/06/12 03:38:57;;;;;;;2.13;0.95;;;19.20;99.90;;;;;;5076245;28;20220;-72
2023/06/12 03:41:26;;;;;;;1.13;1.00;;;19.10;99.40;;;;;;5066242;28;20259;-71
2023/06/12 03:43:54;;;;;;;0.90;0.80;;;19.10;99.50;;;;;;5073029;28;20586;-70
2023/06/12 03:46:21;;;;;;;1.05;0.95;;;19.10;99.40;;;;;;5072512;28;20217;-71
2023/06/12 03:48:51;;;;;;;1.35;0.88;;;19.00;99.90;;;;;;5070822;28;20345;-73
2023/06/12 03:51:19;;;;;;;1.25;0.82;;;19.00;99.90;;;;;;5068568;28;20222;-73
2023/06/12 03:53:47;;;;;;;1.40;1.30;;;19.00;99.90;;;;;;5069630;28;20200;-75
2023/06/12 03:56:15;;;;;;;1.10;1.00;;;18.90;99.90;;;;;;5069927;28;20208;-72
2023/06/12 03:58:43;;;;;;;1.23;0.80;;;18.90;99.90;;;;;;5070984;28;20220;-73
2023/06/12 04:01:11;;;;;;;0.80;0.70;;;19.00;99.90;;;;;;5072134;28;20584;-74
2023/06/12 04:03:39;;;;;;;1.55;1.00;;;19.00;99.90;;;;;;5081930;28;20205;-73
2023/06/12 04:06:09;;;;;;;1.45;0.80;;;19.00;99.90;;;;;;5079967;28;20321;-74
2023/06/12 04:08:37;;;;;;;0.95;0.88;;;19.00;99.90;;;;;;5103842;23;20650;-71
2023/06/12 04:11:08;;;;;;;0.80;0.80;;;19.00;99.90;;;;;;5081504;28;20253;-71
2023/06/12 04:13:36;;;;;;;1.15;0.88;;;19.10;99.90;;;;;;5078336;28;20216;-72
2023/06/12 04:16:05;;;;;;;1.00;0.90;;;19.10;99.90;;;;;;5056308;28;20222;-71
2023/06/12 04:18:33;;;;;;;1.00;0.90;;;19.10;99.90;;;;;;5049531;28;20607;-73
2023/06/12 04:21:02;;;;;;;1.33;1.00;;;19.10;99.90;;;;;;5037367;28;20221;-72
2023/06/12 04:23:32;;;;;;;0.85;0.85;;;19.20;99.90;;;;;;5036745;28;20232;-70
2023/06/12 04:26:04;;;;;;;1.17;1.08;;;19.30;99.90;;;;;;5036444;28;20210;-73
2023/06/12 04:28:32;;;;;;;0.82;0.80;;;19.30;99.90;;;;;;5034055;28;20445;-72
2023/06/12 04:31:00;;;;;;;1.02;0.90;;;19.40;99.90;;;;;;5036795;28;20208;-72
2023/06/12 04:33:30;;;;;;;1.05;0.90;;;19.40;99.90;;;;;;5034171;28;20248;-73
2023/06/12 04:35:58;;;;;;;1.10;1.00;;;19.40;99.90;;;;;;5034800;28;20216;-73
2023/06/12 04:38:27;;;;;;;1.10;1.02;;;19.40;99.90;;;;;;5034781;28;20227;-73
2023/06/12 04:40:56;;;;;;;1.08;0.82;;;19.40;99.90;;;;;;5036671;28;20822;-73
2023/06/12 04:43:24;;;;;;;1.35;1.25;;;19.40;99.90;;;;;;5034926;28;20208;-73
2023/06/12 04:45:53;;;;;;;0.98;0.98;;;19.50;99.90;;;;;;5036355;28;20216;-73
2023/06/12 04:48:25;;;;;;;1.20;1.10;;;19.50;99.90;;;;;;5034692;28;20235;-74
2023/06/12 04:50:54;;;;;;;1.00;0.82;;;19.50;99.90;;;;;;5035783;28;20660;-74
2023/06/12 04:53:27;;;;;;;1.10;1.05;;;19.50;99.90;;;;;;5034368;28;20229;-74
2023/06/12 04:55:58;;;;;;;1.30;1.20;;;19.60;99.90;;;;;;5034391;28;20217;-74
2023/06/12 04:58:26;;;;;;;1.67;1.38;;;19.60;99.90;;;;;;5035043;28;20275;-74
2023/06/12 05:00:55;;;;;;;1.23;1.13;;;19.60;99.90;;;;;;5034428;28;20205;-74
2023/06/12 05:03:25;;;;;;;1.02;0.95;;;19.50;99.90;;;;;;5034433;28;20216;-74
2023/06/12 05:05:56;;;;;;;1.20;1.10;;;19.60;99.90;;;;;;5035126;28;20204;-74
2023/06/12 05:08:24;;;;;;;0.70;0.65;;;19.60;99.90;;;;;;5035899;28;20267;-73
2023/06/12 05:10:52;;;;;;;1.00;0.90;;;19.70;99.90;;;;;;5035540;28;20208;-74
2023/06/12 05:13:21;;;;;;;0.90;0.82;;;19.70;99.90;;;;;;5035585;28;20224;-73
2023/06/12 05:15:49;;;;;;;1.30;1.10;;;19.70;99.90;;;;;;5035076;28;20202;-74
2023/06/12 05:18:17;;;;;;;0.77;0.77;;;19.80;99.90;;;;;;5034619;28;20686;-74
2023/06/12 05:20:45;;;;;;;1.75;1.38;;;19.80;99.90;;;;;;5037139;28;20208;-74
2023/06/12 05:23:13;;;;;;;1.70;1.60;;;19.80;99.90;;;;;;5034035;28;20274;-71
2023/06/12 05:25:42;;;;;;;0.70;0.60;;;19.90;99.90;;;;;;5034204;28;20220;-72
2023/06/12 05:28:11;;;;;;;0.70;0.60;;;19.90;99.90;;;;;;5034278;28;20243;-71
2023/06/12 05:30:40;;;;;;;1.05;0.88;;;20.00;99.90;;;;;;5037213;28;20205;-72
2023/06/12 05:33:08;;;;;;;0.85;0.70;;;20.10;99.90;;;;;;5034447;28;20237;-72
2023/06/12 05:35:36;;;;;;;0.80;0.80;;;20.20;99.90;;;;;;5036596;28;20224;-71
2023/06/12 05:38:04;;;;;;;1.55;1.35;;;20.20;99.90;;;;;;5036235;28;20243;-72
2023/06/12 05:40:32;;;;;;;0.80;0.77;;;20.30;99.90;;;;;;5036259;28;20208;-72
2023/06/12 05:43:00;;;;;;;1.00;0.90;;;20.40;99.90;;;;;;5032345;28;20229;-72
2023/06/12 05:45:28;;;;;;;0.70;0.70;;;20.50;99.90;;;;;;5033859;28;20919;-72
2023/06/12 05:47:57;;;;;;;1.27;1.00;;;20.60;99.90;;;;;;5035482;28;20211;-72
2023/06/12 05:50:25;;;;;;;1.08;1.00;;;20.70;99.90;;;;;;5035436;28;20200;-73
2023/06/12 05:52:53;;;;;;;0.70;0.50;;;20.80;99.90;;;;;;5039523;28;20217;-72
2023/06/12 05:55:21;;;;;;;0.80;0.80;;;20.70;99.90;;;;;;5050710;28;20208;-71
2023/06/12 05:57:49;;;;;;;2.05;0.75;;;20.80;99.90;;;;;;5060758;28;20616;-71
2023/06/12 06:00:22;;;;;;;2.38;1.02;;;20.90;99.90;;;;;;5052858;28;20664;-72
2023/06/12 06:02:50;;;;;;;0.80;0.80;;;21.00;99.90;;;;;;5057266;28;20197;-71
2023/06/12 06:05:19;;;;;;;1.23;1.13;;;21.00;99.90;;;;;;5062545;28;20282;-71
2023/06/12 06:07:50;;;;;;;1.05;0.75;;;21.20;99.90;;;;;;5058508;28;20197;-70
2023/06/12 06:10:18;;;;;;;0.73;0.70;;;21.40;99.90;;;;;;5060876;28;20208;-70
2023/06/12 06:12:46;;;;;;;1.13;0.82;;;21.50;99.90;;;;;;5058315;28;20216;-70
2023/06/12 06:15:14;;;;;;;0.60;0.52;;;21.60;99.90;;;;;;5063476;28;20217;-70
2023/06/12 06:17:42;;;;;;;0.70;0.70;;;21.70;99.90;;;;;;5060615;28;20225;-70
2023/06/12 06:20:12;;;;;;;0.70;0.68;;;21.80;99.90;;;;;;5052527;28;20210;-69
2023/06/12 06:22:43;;;;;;;0.80;0.65;;;21.70;99.90;;;;;;5056265;28;20292;-70
2023/06/12 06:25:12;;;;;;;0.75;0.75;;;21.70;99.90;;;;;;5045684;28;20201;-72
2023/06/12 06:27:41;;;;;;;1.20;1.08;;;21.80;99.90;;;;;;5050172;28;20255;-72
2023/06/12 06:30:09;;;;;;;1.17;1.08;;;22.00;99.90;;;;;;5050870;28;20230;-72
2023/06/12 06:32:37;;;;;;;0.95;0.95;;;22.00;99.90;;;;;;5054235;28;20230;-72
2023/06/12 06:35:06;;;;;;;0.80;0.80;;;22.10;99.90;;;;;;5051960;28;20623;-72
2023/06/12 06:37:33;;;;;;;1.83;1.42;;;22.20;99.90;;;;;;5054360;28;20217;-72
2023/06/12 06:40:05;;;;;;;1.08;0.70;;;22.40;99.90;;;;;;5049222;28;20295;-72
2023/06/12 06:42:32;;;;;;;0.90;0.70;;;22.50;99.90;;;;;;5049980;28;20213;-70
2023/06/12 06:45:00;;;;;;;1.33;1.00;;;22.50;99.90;;;;;;5055263;28;20271;-70
2023/06/12 06:47:29;;;;;;;1.60;1.02;;;22.60;99.90;;;;;;5051273;28;20213;-71
2023/06/12 06:49:57;;;;;;;1.48;1.38;;;22.70;99.90;;;;;;5048633;28;20839;-70
2023/06/12 06:52:25;;;;;;;0.73;0.70;;;22.80;99.90;;;;;;5053000;28;20205;-71
2023/06/12 06:54:53;;;;;;;0.70;0.60;;;23.00;99.80;;;;;;5057440;28;20229;-70
2023/06/12 06:57:23;;;;;;;0.98;0.88;;;23.00;99.90;;;;;;5048138;28;21022;-70
2023/06/12 06:59:54;;;;;;;1.15;0.98;;;23.20;99.90;;;;;;5054055;28;20234;-70
2023/06/12 07:02:22;;;;;;;1.30;0.95;;;23.20;99.90;;;;;;5051629;28;20214;-70
2023/06/12 07:04:51;;;;;;;0.70;0.70;;;23.30;99.20;;;;;;5047397;28;20226;-72
2023/06/12 07:07:19;;;;;;;0.90;0.75;;;23.30;99.70;;;;;;5047019;28;20275;-72
2023/06/12 07:09:47;;;;;;;0.75;0.70;;;23.30;99.20;;;;;;5049366;28;20233;-72
2023/06/12 07:12:15;;;;;;;0.88;0.82;;;23.30;99.60;;;;;;5049435;28;20224;-71
2023/06/12 07:14:45;;;;;;;1.50;1.20;;;23.30;99.60;;;;;;5052947;28;20217;-73
2023/06/12 07:17:12;;;;;;;3.58;0.90;;;23.30;99.10;;;;;;5049137;28;20227;-69
2023/06/12 07:19:40;;;;;;;1.30;1.08;;;23.40;99.10;;;;;;5057820;28;20300;-72
2023/06/12 07:22:08;;;;;;;1.23;1.00;;;23.50;98.40;;;;;;5046080;28;20232;-70
2023/06/12 07:24:36;;;;;;;1.50;1.40;;;23.50;98.90;;;;;;5038114;28;20206;-70
2023/06/12 07:27:05;;;;;;;3.38;0.70;;;23.50;98.30;;;;;;5036123;28;20214;-68
2023/06/12 07:29:34;;;;;;;0.95;0.80;;;23.60;99.40;;;;;;5038586;28;20310;-70
2023/06/12 07:32:04;;;;;;;1.27;1.17;;;23.80;98.70;;;;;;5035302;28;20691;-72
2023/06/12 07:34:32;;;;;;;0.77;0.70;;;23.80;98.40;;;;;;5035831;28;20230;-72
2023/06/12 07:37:02;;;;;;;0.98;0.98;;;23.90;99.60;;;;;;5039874;28;20210;-71
2023/06/12 07:39:30;;;;;;;2.25;1.05;;;24.00;98.10;;;;;;5037440;28;20231;-70
2023/06/12 07:41:59;;;;;;;1.00;1.00;;;24.10;98.70;;;;;;5037547;28;20210;-70
2023/06/12 07:44:27;;;;;;;0.93;0.73;;;24.30;98.60;;;;;;5037812;28;20213;-69
2023/06/12 07:46:56;;;;;;;0.77;0.70;;;24.40;98.30;;;;;;5040112;28;20211;-70
2023/06/12 07:49:26;;;;;;;0.90;0.80;;;24.50;98.50;;;;;;5039139;28;20234;-71
2023/06/12 07:51:54;;;;;;;0.98;0.80;;;24.70;98.10;;;;;;5037515;28;20952;-69
2023/06/12 07:54:23;;;;;;;1.30;1.20;;;24.70;97.50;;;;;;5038213;28;20233;-70
2023/06/12 07:56:51;;;;;;;1.00;0.90;;;24.70;97.20;;;;;;5038971;28;20989;-69
2023/06/12 07:59:20;;;;;;;1.20;1.10;;;24.90;98.30;;;;;;5037655;28;20222;-70
2023/06/12 08:01:49;;;;;;;1.25;1.23;;;24.90;97.60;;;;;;5038360;28;20210;-70
2023/06/12 08:04:18;;;;;;;0.90;0.60;;;24.90;97.70;;;;;;5039769;28;20321;-72
2023/06/12 08:06:49;;;;;;;1.52;0.82;;;24.90;97.60;;;;;;5039843;28;20307;-71
2023/06/12 08:09:18;;;;;;;0.90;0.85;;;25.10;98.40;;;;;;5039483;28;20246;-72
2023/06/12 08:11:46;;;;;;;0.70;0.70;;;25.30;98.40;;;;;;5038475;28;20272;-73
2023/06/12 08:14:14;;;;;;;0.80;0.80;;;25.60;97.30;;;;;;5037006;28;20247;-71
2023/06/12 08:16:45;;;;;;;1.40;1.13;;;25.70;97.30;;;;;;5037916;28;20211;-72
2023/06/12 08:19:13;;;;;;;2.28;1.42;;;25.70;97.10;;;;;;5037532;28;20231;-73
2023/06/12 08:21:41;;;;;;;1.35;0.85;;;25.90;97.50;;;;;;5035745;28;20445;-72
2023/06/12 08:24:12;;;;;;;0.80;0.80;;;26.10;97.80;;;;;;5037834;28;20208;-71
2023/06/12 08:26:41;;;;;;;1.17;0.93;;;26.30;97.00;;;;;;5037937;28;20215;-71
2023/06/12 08:29:08;;;;;;;1.13;1.02;;;26.40;96.30;;;;;;5038483;28;20249;-71
2023/06/12 08:31:37;;;;;;;1.65;1.10;;;26.40;96.60;;;;;;5037506;28;20216;-70
2023/06/12 08:34:05;;;;;;;1.80;1.45;;;26.40;96.40;;;;;;5037575;28;20219;-69
2023/06/12 08:36:35;;;;;;;1.10;1.00;;;26.40;95.30;;;;;;5038400;28;20208;-69
2023/06/12 08:39:03;;;;;;;1.17;1.05;;;26.40;96.20;;;;;;5038133;28;20263;-69
2023/06/12 08:41:35;;;;;;;1.10;1.00;;;26.70;96.40;;;;;;5035168;28;20208;-69
2023/06/12 08:44:03;;;;;;;1.45;1.35;;;26.80;95.60;;;;;;5036177;28;20211;-69
2023/06/12 08:46:31;;;;;;;0.80;0.80;;;26.90;96.10;;;;;;5036691;28;20203;-68
2023/06/12 08:49:00;;;;;;;0.88;0.88;;;27.10;96.60;;;;;;5034898;28;20227;-69
2023/06/12 08:51:30;;;;;;;1.08;1.00;;;27.20;95.50;;;;;;5035666;28;20212;-68
2023/06/12 08:54:00;;;;;;;0.80;0.80;;;27.30;95.30;;;;;;5037134;28;20243;-68
2023/06/12 08:56:29;;;;;;;1.00;0.95;;;27.40;95.50;;;;;;5036223;28;21024;-70
2023/06/12 08:58:58;;;;;;;0.80;0.80;;;27.40;95.00;;;;;;5036401;28;20242;-70
2023/06/12 09:01:28;;;;;;;1.25;1.13;;;27.30;95.10;;;;;;5034113;28;20212;-71
2023/06/12 09:04:01;;;;;;;1.40;1.30;;;27.30;94.70;;;;;;5036428;28;20952;-70
2023/06/12 09:06:34;;;;;;;1.73;0.80;;;27.50;94.60;;;;;;5036005;28;20207;-71
2023/06/12 09:09:03;;;;;;;1.05;0.55;;;27.70;94.70;;;;;;5035740;28;20257;-70
2023/06/12 09:11:31;;;;;;;1.35;1.25;;;27.90;94.90;;;;;;5035488;28;20209;-71
2023/06/12 09:14:02;;;;;;;0.80;0.70;;;28.10;93.10;;;;;;5035008;28;20211;-71
2023/06/12 09:16:30;;;;;;;1.58;1.33;;;28.20;94.20;;;;;;5035911;28;20606;-71
2023/06/12 09:18:58;;;;;;;0.77;0.77;;;28.30;93.30;;;;;;5037764;28;21108;-71
2023/06/12 09:21:26;;;;;;;0.88;0.70;;;28.30;92.90;;;;;;5035644;28;20255;-71
2023/06/12 09:23:56;;;;;;;0.90;0.90;;;28.40;93.10;;;;;;5037198;28;20598;-71
2023/06/12 09:26:24;;;;;;;0.98;0.88;;;28.50;93.50;;;;;;5035139;28;20341;-70
2023/06/12 09:28:52;;;;;;;1.40;1.02;;;28.90;93.10;;;;;;5035323;28;20232;-72
2023/06/12 09:31:22;;;;;;;1.08;0.88;;;28.80;91.60;;;;;;5036457;28;20220;-71
2023/06/12 09:33:53;;;;;;;1.20;1.00;;;28.80;92.40;;;;;;5038671;28;20223;-71
2023/06/12 09:36:27;;;;;;;0.82;0.82;;;28.90;91.70;;;;;;5037123;28;20219;-70
2023/06/12 09:38:55;;;;;;;1.73;1.58;;;29.10;91.60;;;;;;5040862;28;20244;-70
2023/06/12 09:41:24;;;;;;;0.93;0.93;;;29.10;92.00;;;;;;5038366;28;20215;-70
2023/06/12 09:43:53;;;;;;;0.98;0.80;;;29.20;91.10;;;;;;5039635;28;20216;-71
2023/06/12 09:46:26;;;;;;;1.00;0.95;;;29.20;91.10;;;;;;5041413;28;20212;-71
2023/06/12 09:48:57;;;;;;;1.35;1.25;;;29.70;90.90;;;;;;5041552;28;20243;-71
2023/06/12 09:51:26;;;;;;;1.13;1.10;;;30.20;90.50;;;;;;5039329;28;20581;-72
2023/06/12 09:53:57;;;;;;;0.88;0.88;;;30.20;87.80;;;;;;5040006;28;20666;-71
2023/06/12 09:56:25;;;;;;;1.10;0.75;;;30.20;90.00;;;;;;5042738;28;20811;-72
2023/06/12 09:58:55;;;;;;;1.25;1.00;;;30.40;90.10;;;;;;5040032;28;20257;-73
2023/06/12 10:01:25;;;;;;;1.00;1.00;;;30.60;90.10;;;;;;5037626;28;20212;-72
2023/06/12 10:03:59;;;;;;;1.00;0.90;;;30.60;85.00;;;;;;5039079;28;20635;-71
2023/06/12 10:06:28;;;;;;;1.87;0.93;;;30.70;85.90;;;;;;5040155;28;20639;-71
2023/06/12 10:08:57;;;;;;;0.80;0.60;;;30.50;84.30;;;;;;5089490;23;20683;-66
2023/06/12 10:11:26;;;;;;;1.17;1.07;;;30.10;86.70;;;;;;5056710;28;20214;-68
2023/06/12 10:13:54;;;;;;;1.30;1.13;;;30.00;86.20;;;;;;5059892;28;20655;-67
2023/06/12 10:16:23;;;;;;;1.60;1.50;;;29.60;86.20;;;;;;5060034;28;20581;-67
2023/06/12 10:18:56;;;;;;;1.40;1.25;;;29.10;86.90;;;;;;5060659;28;20238;-66
2023/06/12 10:21:24;;;;;;;0.90;0.90;;;29.20;88.70;;;;;;5057199;28;20207;-67
2023/06/12 10:23:53;;;;;;;1.77;0.90;;;29.10;87.00;;;;;;5060383;28;20694;-67
2023/06/12 10:26:22;;;;;;;0.95;0.85;;;29.10;89.10;;;;;;5058608;28;20203;-68
2023/06/12 10:28:50;;;;;;;1.00;0.80;;;28.70;87.50;;;;;;5060134;28;20231;-66
2023/06/12 10:31:19;;;;;;;0.90;0.90;;;28.10;88.60;;;;;;5058485;28;20211;-67
2023/06/12 10:33:59;;;;;;;1.52;1.42;;;27.80;90.10;;;;;;5060698;28;20215;-66
2023/06/12 10:36:39;;;;;;;1.05;0.98;;;28.30;87.50;;;;;;5060819;28;20363;-65
2023/06/12 10:39:15;;;;;;;1.00;0.80;;;28.90;87.70;;;;;;5059156;28;20231;-67
2023/06/12 10:41:55;;;;;;;0.80;0.80;;;29.50;82.20;;;;;;5056498;28;20231;-67
2023/06/12 10:44:48;;;;;;;0.70;0.70;;;29.90;80.80;;;;;;5060216;28;21202;-66
2023/06/12 10:47:21;;;;;;;0.80;0.80;;;30.40;80.50;;;;;;5057780;28;20223;-67
2023/06/12 10:49:58;;;;;;;2.03;1.92;;;30.50;80.70;;;;;;5060102;28;20235;-66
2023/06/12 10:52:27;;;;;;;1.27;0.93;;;30.30;80.00;;;;;;5056085;28;20218;-67
2023/06/12 10:55:18;;;;;;;1.42;1.33;;;30.50;78.30;;;;;;5059838;28;20213;-66
2023/06/12 10:57:53;;;;;;;1.10;1.00;;;30.60;77.00;;;;;;5059470;28;20218;-66
2023/06/12 11:00:23;;;;;;;0.70;0.70;;;30.90;77.20;;;;;;5059681;28;20744;-67
2023/06/12 11:02:59;;;;;;;1.10;1.00;;;31.10;77.90;;;;;;5055137;28;20215;-67
2023/06/12 11:05:30;;;;;;;1.00;1.00;;;31.20;75.50;;;;;;5059828;28;20640;-67
2023/06/12 11:07:59;;;;;;;1.00;0.90;;;31.70;73.60;;;;;;5060122;28;21276;-66
2023/06/12 11:10:28;;;;;;;0.80;0.80;;;31.70;75.10;;;;;;5059191;28;20660;-66
2023/06/12 11:12:57;;;;;;;1.20;1.10;;;31.60;75.40;;;;;;5055393;28;20668;-67
2023/06/12 11:15:25;;;;;;;1.37;1.13;;;31.20;73.80;;;;;;5059898;28;21407;-66
2023/06/12 11:17:53;;;;;;;1.17;1.07;;;30.60;73.90;;;;;;5059619;28;20635;-66
2023/06/12 11:20:23;;;;;;;0.73;0.73;;;30.80;75.10;;;;;;5059425;28;20663;-66
2023/06/12 11:23:00;;;;;;;1.20;1.10;;;31.20;73.20;;;;;;5055112;28;20994;-66
2023/06/12 11:25:32;;;;;;;1.47;1.17;;;31.50;71.60;;;;;;5059299;28;20640;-66
2023/06/12 11:28:00;;;;;;;0.90;0.90;;;31.80;70.90;;;;;;5059078;28;20721;-66
2023/06/12 11:30:28;;;;;;;0.80;0.80;;;32.30;72.40;;;;;;5059041;28;20666;-67
2023/06/12 11:33:07;;;;;;;1.80;1.60;;;32.60;69.70;;;;;;5054977;28;20722;-67
2023/06/12 11:35:41;;;;;;;0.90;0.90;;;32.50;67.80;;;;;;5057872;28;20677;-67
2023/06/12 11:38:12;;;;;;;1.30;1.20;;;32.30;70.60;;;;;;5058115;28;20646;-68
2023/06/12 11:40:44;;;;;;;1.00;0.90;;;32.30;69.30;;;;;;5058311;28;20610;-67
2023/06/12 11:43:12;;;;;;;1.03;0.97;;;32.40;67.40;;;;;;5053951;28;20632;-65
2023/06/12 11:45:42;;;;;;;0.90;0.90;;;32.40;66.40;;;;;;5057463;28;20628;-68
2023/06/12 11:48:14;;;;;;;1.33;1.10;;;32.70;67.10;;;;;;5058881;28;20641;-67
2023/06/12 11:50:46;;;;;;;0.70;0.70;;;32.90;65.10;;;;;;5058461;28;20628;-67
2023/06/12 11:53:16;;;;;;;1.10;1.00;;;32.70;66.60;;;;;;5054185;28;21316;-67
2023/06/12 11:55:47;;;;;;;0.90;0.80;;;32.30;67.00;;;;;;5058325;28;20657;-68
2023/06/12 11:58:18;;;;;;;1.30;1.20;;;32.20;64.80;;;;;;5058914;28;20631;-67
2023/06/12 12:00:51;;;;;;;0.93;0.90;;;32.20;65.30;;;;;;5057578;28;20639;-68
2023/06/12 12:03:21;;;;;;;0.80;0.80;;;32.30;65.90;;;;;;5054349;28;21558;-68
2023/06/12 12:05:52;;;;;;;1.53;1.43;;;32.50;68.40;;;;;;5058908;28;20621;-67
2023/06/12 12:08:27;;;;;;;1.83;1.57;;;32.60;65.10;;;;;;5058389;28;21203;-67
2023/06/12 12:10:55;;;;;;;1.13;1.03;;;32.30;65.10;;;;;;5058789;28;20666;-67
2023/06/12 12:13:23;;;;;;;1.00;1.00;;;31.10;66.50;;;;;;5054924;28;20625;-67
2023/06/12 12:15:51;;;;;;;0.90;0.90;;;30.00;68.10;;;;;;5058916;28;20660;-67
2023/06/12 12:18:20;;;;;;;1.35;0.90;;;29.80;67.70;;;;;;5058398;28;20682;-67
2023/06/12 12:20:49;;;;;;;0.83;0.83;;;29.60;68.90;;;;;;5058560;28;20297;-67
2023/06/12 12:23:17;;;;;;;1.55;1.25;;;29.90;69.80;;;;;;5053205;28;20642;-68
2023/06/12 12:25:48;;;;;;;0.90;0.90;;;29.60;68.80;;;;;;5058122;28;20215;-68
2023/06/12 12:28:16;;;;;;;1.03;0.93;;;29.70;69.30;;;;;;5058195;28;20310;-68
2023/06/12 12:30:44;;;;;;;2.58;0.85;;;29.90;69.10;;;;;;5057917;28;20629;-66
2023/06/12 12:33:12;;;;;;;1.40;1.30;;;30.30;69.40;;;;;;5051600;28;20222;-67
2023/06/12 12:35:40;;;;;;;1.10;1.00;;;30.70;69.20;;;;;;5058292;28;20632;-67
2023/06/12 12:38:08;;;;;;;1.93;1.67;;;30.90;66.80;;;;;;5058953;28;21014;-67
2023/06/12 12:40:37;;;;;;;0.80;0.80;;;31.00;67.80;;;;;;5057889;28;21034;-67
2023/06/12 12:43:06;;;;;;;1.17;1.07;;;31.60;67.90;;;;;;5052552;28;21394;-66
2023/06/12 12:45:34;;;;;;;1.03;0.93;;;31.70;65.10;;;;;;5057483;28;20628;-68
2023/06/12 12:48:02;;;;;;;1.40;1.10;;;31.80;67.90;;;;;;5058143;28;20640;-67
2023/06/12 12:50:30;;;;;;;1.13;0.90;;;32.20;65.30;;;;;;5058354;28;20735;-66
2023/06/12 12:53:02;;;;;;;1.63;1.53;;;32.20;64.00;;;;;;5053513;28;20633;-68
2023/06/12 12:55:32;;;;;;;1.00;0.90;;;32.10;65.40;;;;;;5056110;28;20642;-67
2023/06/12 12:58:00;;;;;;;1.23;1.13;;;32.10;64.90;;;;;;5057799;28;20691;-66
2023/06/12 13:00:46;;;;;;;1.20;1.10;;;32.10;65.20;;;;;;5054420;28;21301;-65